sensor_id;sensor_type;location;lat;lon;timestamp;temperature;humidity
18268;DHT22;9260;49.998;19.880;2023-11-18T00:05:07;1.70;1.00
18268;DHT22;9260;49.998;19.880;2023-11-18T00:25:16;1.40;1.00
18268;DHT22;9260;49.998;19.880;2023-11-18T00:35:20;1.60;1.00
18268;DHT22;9260;49.998;19.880;2023-11-18T00:45:25;1.60;1.00
18268;DHT22;9260;49.998;19.880;2023-11-18T01:25:48;1.30;1.00
18268;DHT22;9260;49.998;19.880;2023-11-18T01:45:58;1.60;1.00
18268;DHT22;9260;49.998;19.880;2023-11-18T02:16:17;1.70;1.00
18268;DHT22;9260;49.998;19.880;2023-11-18T02:46:39;1.80;1.00
18268;DHT22;9260;49.998;19.880;2023-11-18T03:27:00;2.00;1.00
18268;DHT22;9260;49.998;19.880;2023-11-18T03:37:03;2.00;1.00
18268;DHT22;9260;49.998;19.880;2023-11-18T03:47:08;2.10;1.00
18268;DHT22;9260;49.998;19.880;2023-11-18T03:57:12;2.00;1.00
18268;DHT22;9260;49.998;19.880;2023-11-18T04:27:26;2.10;1.00
18268;DHT22;9260;49.998;19.880;2023-11-18T04:57:40;2.20;1.00
18268;DHT22;9260;49.998;19.880;2023-11-18T05:07:46;2.10;1.00
18268;DHT22;9260;49.998;19.880;2023-11-18T05:58:10;1.90;1.00
18268;DHT22;9260;49.998;19.880;2023-11-18T06:08:14;2.20;1.00
18268;DHT22;9260;49.998;19.880;2023-11-18T06:18:18;2.10;1.00
18268;DHT22;9260;49.998;19.880;2023-11-18T06:28:23;2.20;1.00
18268;DHT22;9260;49.998;19.880;2023-11-18T06:38:28;2.30;1.00
18268;DHT22;9260;49.998;19.880;2023-11-18T06:48:33;2.20;1.00
18268;DHT22;9260;49.998;19.880;2023-11-18T06:58:38;2.10;1.00
18268;DHT22;9260;49.998;19.880;2023-11-18T07:08:43;2.20;1.00
18268;DHT22;9260;49.998;19.880;2023-11-18T07:18:46;2.20;1.00
18268;DHT22;9260;49.998;19.880;2023-11-18T07:28:51;2.40;1.00
18268;DHT22;9260;49.998;19.880;2023-11-18T07:49:01;3.70;1.00
18268;DHT22;9260;49.998;19.880;2023-11-18T07:59:05;3.50;1.00
18268;DHT22;9260;49.998;19.880;2023-11-18T08:09:12;3.30;1.00
18268;DHT22;9260;49.998;19.880;2023-11-18T08:19:16;3.30;1.00
18268;DHT22;9260;49.998;19.880;2023-11-18T08:29:21;8.00;1.00
18268;DHT22;9260;49.998;19.880;2023-11-18T08:39:26;10.50;1.00
18268;DHT22;9260;49.998;19.880;2023-11-18T08:49:32;6.70;1.00
18268;DHT22;9260;49.998;19.880;2023-11-18T08:59:36;5.30;1.00
18268;DHT22;9260;49.998;19.880;2023-11-18T09:09:41;3.80;1.00
18268;DHT22;9260;49.998;19.880;2023-11-18T09:19:45;3.40;1.00
18268;DHT22;9260;49.998;19.880;2023-11-18T09:29:50;3.20;1.00
18268;DHT22;9260;49.998;19.880;2023-11-18T09:39:54;2.80;1.00
18268;DHT22;9260;49.998;19.880;2023-11-18T09:50:02;2.60;1.00
18268;DHT22;9260;49.998;19.880;2023-11-18T10:00:07;2.30;1.00
18268;DHT22;9260;49.998;19.880;2023-11-18T10:30:50;1.60;1.00
18268;DHT22;9260;49.998;19.880;2023-11-18T10:40:53;1.40;1.00
18268;DHT22;9260;49.998;19.880;2023-11-18T11:01:03;1.80;1.00
18268;DHT22;9260;49.998;19.880;2023-11-18T11:31:30;1.30;1.00
18268;DHT22;9260;49.998;19.880;2023-11-18T11:41:35;1.20;1.00
18268;DHT22;9260;49.998;19.880;2023-11-18T12:01:47;1.50;1.00
18268;DHT22;9260;49.998;19.880;2023-11-18T12:11:56;1.50;1.00
18268;DHT22;9260;49.998;19.880;2023-11-18T12:22:01;1.50;1.00
18268;DHT22;9260;49.998;19.880;2023-11-18T12:32:17;1.40;1.00
18268;DHT22;9260;49.998;19.880;2023-11-18T12:43:01;1.00;1.00
18268;DHT22;9260;49.998;19.880;2023-11-18T12:53:09;0.90;1.00
18268;DHT22;9260;49.998;19.880;2023-11-18T13:03:16;0.90;1.00
18268;DHT22;9260;49.998;19.880;2023-11-18T13:23:28;0.90;1.00
18268;DHT22;9260;49.998;19.880;2023-11-18T13:33:34;0.70;1.00
18268;DHT22;9260;49.998;19.880;2023-11-18T13:43:43;0.80;1.00
18268;DHT22;9260;49.998;19.880;2023-11-18T13:53:48;0.90;1.00
18268;DHT22;9260;49.998;19.880;2023-11-18T14:03:54;0.80;1.00
18268;DHT22;9260;49.998;19.880;2023-11-18T14:14:05;0.80;1.00
18268;DHT22;9260;49.998;19.880;2023-11-18T14:34:16;0.60;1.00
18268;DHT22;9260;49.998;19.880;2023-11-18T14:54:25;0.70;1.00
18268;DHT22;9260;49.998;19.880;2023-11-18T15:55:02;0.50;1.00
18268;DHT22;9260;49.998;19.880;2023-11-18T16:05:12;0.60;1.00
18268;DHT22;9260;49.998;19.880;2023-11-18T16:15:19;0.50;1.00
18268;DHT22;9260;49.998;19.880;2023-11-18T16:25:24;0.40;1.00
18268;DHT22;9260;49.998;19.880;2023-11-18T16:35:31;0.50;1.00
18268;DHT22;9260;49.998;19.880;2023-11-18T16:45:34;0.30;1.00
18268;DHT22;9260;49.998;19.880;2023-11-18T16:55:40;0.50;1.00
18268;DHT22;9260;49.998;19.880;2023-11-18T17:05:44;0.40;1.00
18268;DHT22;9260;49.998;19.880;2023-11-18T17:15:48;0.60;1.00
18268;DHT22;9260;49.998;19.880;2023-11-18T17:25:52;0.10;1.00
18268;DHT22;9260;49.998;19.880;2023-11-18T17:35:59;0.70;1.00
18268;DHT22;9260;49.998;19.880;2023-11-18T17:56:11;0.70;1.00
18268;DHT22;9260;49.998;19.880;2023-11-18T18:06:16;0.60;1.00
18268;DHT22;9260;49.998;19.880;2023-11-18T18:16:21;0.50;1.00
18268;DHT22;9260;49.998;19.880;2023-11-18T18:26:24;0.50;1.00
18268;DHT22;9260;49.998;19.880;2023-11-18T19:16:48;0.50;1.00
18268;DHT22;9260;49.998;19.880;2023-11-18T19:26:52;0.60;1.00
18268;DHT22;9260;49.998;19.880;2023-11-18T19:36:57;0.50;1.00
18268;DHT22;9260;49.998;19.880;2023-11-18T19:47:01;0.50;1.00
18268;DHT22;9260;49.998;19.880;2023-11-18T19:57:07;0.50;1.00
18268;DHT22;9260;49.998;19.880;2023-11-18T20:07:11;0.60;1.00
18268;DHT22;9260;49.998;19.880;2023-11-18T20:17:16;0.60;1.00
18268;DHT22;9260;49.998;19.880;2023-11-18T20:27:20;0.80;1.00
18268;DHT22;9260;49.998;19.880;2023-11-18T20:47:28;0.50;1.00
18268;DHT22;9260;49.998;19.880;2023-11-18T20:57:33;0.60;1.00
18268;DHT22;9260;49.998;19.880;2023-11-18T21:07:37;0.60;1.00
18268;DHT22;9260;49.998;19.880;2023-11-18T21:27:46;0.60;1.00
18268;DHT22;9260;49.998;19.880;2023-11-18T21:37:51;0.80;1.00
18268;DHT22;9260;49.998;19.880;2023-11-18T22:18:22;0.40;1.00
18268;DHT22;9260;49.998;19.880;2023-11-18T22:28:26;0.50;1.00
18268;DHT22;9260;49.998;19.880;2023-11-18T22:38:35;0.50;1.00
18268;DHT22;9260;49.998;19.880;2023-11-18T22:48:40;0.50;1.00
18268;DHT22;9260;49.998;19.880;2023-11-18T22:58:47;0.40;1.00
18268;DHT22;9260;49.998;19.880;2023-11-18T23:08:53;0.40;1.00
18268;DHT22;9260;49.998;19.880;2023-11-18T23:18:58;0.50;1.00
18268;DHT22;9260;49.998;19.880;2023-11-18T23:29:01;0.50;1.00
18268;DHT22;9260;49.998;19.880;2023-11-18T23:39:06;0.50;1.00
